Carrollton, OH (44615)

8:17 PM EDT on August 25, 2016 (GMT -0400)
OHDOT | | Change Station

Elev 1119 ft 40.59 °N, 81.08 °W | Updated 32 minutes ago

Clear
Clear
80.0 °F
Feels Like 84 °F
N
1.0
Wind Variable Wind from WSW
Gusts 1.0 mph

Today
High -- | Low -- °F
--% Chance of Precip.
Yesterday
High -- | Low -- °F
Precip. -- in
Pressure 29.99 in
Visibility 10.0 miles
Clouds Clear
Heat Index 84 °F
Dew Point 72.0 °F
Humidity 76%
Rainfall in
Snow Depth Not available.
6:45 AM 8:06 PM
Last Quarter, 40% visible
METAR KPHD 252353Z AUTO 23005KT 10SM CLR 30/23 A3001 RMK AO2 SLP156 T03000228 10328 20289 55002
Pressure 29.99 in
Visibility 10.0 miles
Clouds Clear
Heat Index 84 °F
Dew Point 72.0 °F
Humidity 76%
Rainfall in
Snow Depth Not available.
6:45 AM 8:06 PM
Last Quarter, 40% visible
METAR KPHD 252353Z AUTO 23005KT 10SM CLR 30/23 A3001 RMK AO2 SLP156 T03000228 10328 20289 55002
A tropical disturbance pushing toward the Bahamas, is expected to develop into a tropical depression or storm, and will likely target Florida and the Gulf Coast this weekend into next week.

Right now, the disturbance remains a broad area of low pressure pushing through the Dominican Republic and Haiti, headed toward the southeast Bahamas. Rainfall totals over 3 inches (with locally higher amounts) are expected in HispaƱiola, particularly over elevated terrain.

10-Day Weather Forecast

Almanac

Astronomy

Aug. 25, 2016 Rise Set
Actual Time
Civil Twilight
Nautical Twilight
Astronomical Twilight
Moon
Length of Visible Light
Length of Day
Tomorrow will be .
, % of the Moon is Illuminated

Today's Extremes

State Highs State Lows

Community

WunderPhotos

Upload Photos

1,934,971 photos uploaded!

WunderBlog® & News

Nearby

Air Quality

  Air Quality AQ Index Pollutant
Not available.

Snow Depth

Station Depth Elevation

Earthquake Activity

City Distance Mag. Time & Date
Minimum magnitude displayed is 2.5.

Coastal Water Temperatures

Place Temperature

Stations

Nearby Weather Stations

Station Location Temp. Windchill Dew Point Humidity Wind Precip. Elev Updated Type
                   

Watches & Warnings

There are currently no watches in effect.